This is the latest recevied weather packets stored in our database for station/object WA1DLZ. If no packets are shown the sender has not sent any weather packets the latest 10 day(s).
| Time | Temp. | Humidity | Pressure | Rain* | Wind** | Luminosity | Snow |
|---|---|---|---|---|---|---|---|
| 1777877704 | -1.67° C | 93% | 1006.3 hPa | 0 mm | - | - | - |
| 1777876204 | -1.67° C | 93% | 1006.2 hPa | 0 mm | - | - | - |
| 1777875604 | -1.67° C | 93% | 1006.3 hPa | 0 mm | - | - | - |
| 1777874404 | -1.67° C | 93% | 1006.1 hPa | 0 mm | - | - | - |
| 1777871705 | -1.11° C | 91% | 1006.1 hPa | 0 mm | - | - | - |
| 1777870504 | -0.56° C | 90% | 1006.2 hPa | 0 mm | - | - | - |
| 1777870205 | -0.56° C | 90% | 1006.2 hPa | 0 mm | - | - | - |
| 1777867203 | 1.11° C | 83% | 1006 hPa | 0 mm | - | - | - |
| 1777866603 | 1.67° C | 80% | 1006 hPa | 0 mm | - | - | - |
| 1777861803 | 3.89° C | 69% | 1005.6 hPa | 0 mm | - | - | - |
| 1777859703 | 5° C | 65% | 1005.6 hPa | 0 mm | - | - | - |
| 1777857303 | 6.11° C | 60% | 1005.3 hPa | 0 mm | - | - | - |
| 1777854304 | 6.67° C | 56% | 1004.6 hPa | 0 mm | - | - | - |
| 1777847103 | 8.33° C | 52% | 1003.1 hPa | 0 mm | - | - | - |
| 1777845303 | 9.44° C | 51% | 1002.5 hPa | 0 mm | - | - | - |
| 1777844704 | 9.44° C | 53% | 1002.5 hPa | 0 mm | - | - | - |
| 1777844103 | 9.44° C | 50% | 1002.4 hPa | 0 mm | - | - | - |
| 1777841103 | 10° C | 57% | 1002.3 hPa | 0 mm | - | - | - |
| 1777831503 | 8.89° C | 72% | 1003.7 hPa | 0 mm | - | - | - |
| 1777829103 | 8.33° C | 84% | 1003.7 hPa | 0.25 mm | - | - | - |
| 1777818004 | 5.56° C | 97% | 1005.5 hPa | 0.76 mm | - | - | - |
| 1777817404 | 5.56° C | 97% | 1005.7 hPa | 0.51 mm | - | - | - |
| 1777817103 | 5.56° C | 97% | 1005.8 hPa | 0.51 mm | - | - | - |
| 1777814404 | 5° C | 98% | 1005.9 hPa | 0 mm | - | - | - |
| 1777813804 | 5° C | 98% | 1006.1 hPa | 0 mm | - | - | - |
* Rain latest hour (hover to see other rain measurements)
** Current wind speed in m/s (hover to see current wind gust speed)